createdAt,value
2023-12-28T00:02:16.748Z,3.60
2023-12-28T00:04:43.706Z,3.60
2023-12-28T00:07:10.578Z,3.60
2023-12-28T00:09:39.625Z,3.60
2023-12-28T00:12:06.895Z,3.60
2023-12-28T00:14:33.740Z,3.60
2023-12-28T00:17:00.574Z,3.50
2023-12-28T00:19:27.618Z,3.60
2023-12-28T00:21:54.630Z,3.60
2023-12-28T00:24:22.797Z,3.60
2023-12-28T00:26:50.102Z,3.60
2023-12-28T00:29:17.056Z,3.50
2023-12-28T00:31:44.029Z,3.50
2023-12-28T00:34:11.321Z,3.60
2023-12-28T00:36:38.485Z,3.50
2023-12-28T00:39:05.402Z,3.60
2023-12-28T00:41:32.309Z,3.60
2023-12-28T00:43:59.193Z,3.50
2023-12-28T00:46:26.095Z,3.40
2023-12-28T00:48:53.153Z,3.40
2023-12-28T00:51:20.664Z,3.40
2023-12-28T00:53:47.524Z,3.40
2023-12-28T00:56:14.434Z,3.40
2023-12-28T00:58:41.891Z,3.50
2023-12-28T01:01:09.675Z,3.40
2023-12-28T01:03:37.188Z,3.50
2023-12-28T01:06:06.339Z,3.50
2023-12-28T01:08:35.140Z,3.50
2023-12-28T01:11:03.542Z,3.50
2023-12-28T01:13:31.747Z,3.40
2023-12-28T01:15:58.802Z,3.40
2023-12-28T01:18:25.916Z,3.30
2023-12-28T01:20:53.032Z,3.40
2023-12-28T01:23:19.978Z,3.40
2023-12-28T01:25:46.831Z,3.30
2023-12-28T01:28:13.652Z,3.40
2023-12-28T01:30:40.643Z,3.40
2023-12-28T01:33:07.572Z,3.40
2023-12-28T01:35:34.569Z,3.50
2023-12-28T01:38:02.941Z,3.50
2023-12-28T01:40:30.190Z,3.40
2023-12-28T01:42:57.199Z,3.40
2023-12-28T01:45:24.178Z,3.40
2023-12-28T01:47:53.694Z,3.50
2023-12-28T01:50:22.651Z,3.50
2023-12-28T01:52:50.771Z,3.40
2023-12-28T01:55:18.504Z,3.50
2023-12-28T01:57:46.500Z,3.40
2023-12-28T02:00:14.047Z,3.50
2023-12-28T02:02:42.994Z,3.40
2023-12-28T02:05:14.823Z,3.30
2023-12-28T02:07:42.176Z,3.20
2023-12-28T02:10:09.285Z,3.30
2023-12-28T02:12:36.469Z,3.20
2023-12-28T02:15:03.738Z,3.20
2023-12-28T02:17:48.204Z,3.20
2023-12-28T02:20:16.572Z,3.20
2023-12-28T02:22:44.184Z,3.10
2023-12-28T02:25:14.531Z,3.00
2023-12-28T02:27:44.237Z,2.90
2023-12-28T02:30:19.114Z,2.90
2023-12-28T02:32:57.911Z,2.90
2023-12-28T02:35:30.269Z,3.10
2023-12-28T02:38:02.843Z,3.00
2023-12-28T02:40:32.034Z,2.90
2023-12-28T02:42:59.000Z,2.90
2023-12-28T02:45:26.996Z,2.80
2023-12-28T02:47:54.011Z,2.80
2023-12-28T02:50:20.867Z,2.90
2023-12-28T02:52:47.786Z,2.80
2023-12-28T02:55:14.681Z,2.80
2023-12-28T02:57:41.622Z,2.80
2023-12-28T03:00:12.113Z,2.80
2023-12-28T03:02:39.689Z,2.70
2023-12-28T03:05:07.317Z,2.70
2023-12-28T03:07:34.995Z,2.70
2023-12-28T03:10:03.951Z,2.70
2023-12-28T03:12:31.583Z,2.70
2023-12-28T03:14:58.585Z,2.70
2023-12-28T03:17:25.418Z,2.60
2023-12-28T03:19:52.608Z,2.60
2023-12-28T03:22:19.611Z,2.70
2023-12-28T03:24:47.398Z,2.80
2023-12-28T03:27:15.108Z,2.80
2023-12-28T03:29:45.641Z,2.90
2023-12-28T03:32:12.531Z,2.90
2023-12-28T03:34:40.484Z,2.80
2023-12-28T03:37:07.474Z,2.80
2023-12-28T03:39:35.241Z,2.80
2023-12-28T03:42:02.144Z,2.70
2023-12-28T03:44:28.987Z,2.70
2023-12-28T03:46:57.135Z,2.60
2023-12-28T03:49:24.061Z,2.50
2023-12-28T03:51:52.060Z,2.50
2023-12-28T03:54:19.975Z,2.50
2023-12-28T03:56:47.909Z,2.60
2023-12-28T03:59:18.054Z,2.50
2023-12-28T04:01:45.725Z,2.60
2023-12-28T04:04:12.782Z,2.50
2023-12-28T04:06:40.094Z,2.50
2023-12-28T04:09:07.103Z,2.40
2023-12-28T04:11:34.260Z,2.30
2023-12-28T04:14:02.155Z,2.30
2023-12-28T04:16:28.950Z,2.30
2023-12-28T04:18:55.861Z,2.30
2023-12-28T04:21:23.090Z,2.30
2023-12-28T04:23:49.990Z,2.20
2023-12-28T04:26:20.658Z,2.20
2023-12-28T04:28:47.617Z,2.30
2023-12-28T04:31:14.582Z,2.20
2023-12-28T04:33:41.650Z,2.30
2023-12-28T04:36:08.840Z,2.30
2023-12-28T04:38:35.983Z,2.20
2023-12-28T04:41:03.309Z,2.20
2023-12-28T04:43:30.286Z,2.30
2023-12-28T04:45:57.215Z,2.10
2023-12-28T04:48:27.145Z,2.10
2023-12-28T04:50:54.322Z,2.10
2023-12-28T04:53:21.404Z,2.20
2023-12-28T04:55:48.398Z,2.10
2023-12-28T04:58:15.629Z,2.10
2023-12-28T05:00:42.922Z,2.10
2023-12-28T05:03:10.088Z,2.10
2023-12-28T05:05:37.285Z,2.00
2023-12-28T05:08:04.822Z,2.00
2023-12-28T05:10:31.669Z,1.90
2023-12-28T05:13:01.752Z,2.00
2023-12-28T05:15:30.315Z,1.90
2023-12-28T05:17:58.316Z,1.90
2023-12-28T05:20:25.617Z,1.90
2023-12-28T05:22:52.544Z,1.90
2023-12-28T05:25:19.468Z,1.90
2023-12-28T05:27:46.437Z,1.90
2023-12-28T05:30:13.856Z,1.80
2023-12-28T05:32:41.142Z,1.80
2023-12-28T05:35:08.704Z,1.90
2023-12-28T05:37:35.806Z,1.80
2023-12-28T05:40:03.108Z,1.70
2023-12-28T05:42:30.110Z,1.70
2023-12-28T05:44:57.039Z,1.80
2023-12-28T05:47:25.146Z,1.80
2023-12-28T05:49:53.162Z,1.70
2023-12-28T05:52:20.782Z,1.70
2023-12-28T05:54:49.482Z,1.90
2023-12-28T05:57:16.792Z,1.90
2023-12-28T05:59:43.880Z,1.90
2023-12-28T06:02:10.901Z,1.80
2023-12-28T06:04:38.021Z,1.90
2023-12-28T06:07:06.005Z,1.90
2023-12-28T06:09:33.211Z,1.90
2023-12-28T06:12:00.309Z,1.90
2023-12-28T06:14:27.190Z,2.00
2023-12-28T06:16:54.068Z,2.20
2023-12-28T06:19:21.303Z,2.30
2023-12-28T06:21:48.262Z,2.40
2023-12-28T06:24:15.455Z,2.40
2023-12-28T06:26:46.362Z,2.50
2023-12-28T06:29:13.701Z,3.50
2023-12-28T06:31:41.195Z,5.20
2023-12-28T06:34:09.064Z,6.90
2023-12-28T06:36:36.822Z,8.70
2023-12-28T06:39:04.551Z,9.90
2023-12-28T06:41:31.689Z,10.40
2023-12-28T06:43:58.646Z,10.70
2023-12-28T06:46:25.618Z,11.10
2023-12-28T06:48:52.767Z,10.90
2023-12-28T06:51:21.154Z,11.00
2023-12-28T06:53:48.514Z,10.40
2023-12-28T06:56:16.057Z,10.60
2023-12-28T06:58:43.253Z,10.60
2023-12-28T07:01:10.353Z,10.20
2023-12-28T07:03:37.970Z,9.80
2023-12-28T07:06:05.757Z,9.00
2023-12-28T07:08:35.392Z,8.70
2023-12-28T07:11:05.097Z,7.90
2023-12-28T07:13:32.515Z,7.10
2023-12-28T07:16:00.280Z,6.30
2023-12-28T07:18:28.641Z,5.50
2023-12-28T07:20:55.967Z,5.00
2023-12-28T07:23:23.185Z,4.50
2023-12-28T07:25:50.155Z,4.20
2023-12-28T07:28:17.007Z,3.90
2023-12-28T07:30:44.304Z,3.70
2023-12-28T07:33:11.570Z,3.40
2023-12-28T07:35:43.317Z,3.40
2023-12-28T07:38:10.190Z,3.30
2023-12-28T07:40:37.196Z,3.30
2023-12-28T07:43:04.804Z,3.20
2023-12-28T07:45:31.995Z,3.20
2023-12-28T07:48:02.102Z,3.50
2023-12-28T07:50:29.325Z,4.70
2023-12-28T07:52:56.206Z,5.60
2023-12-28T07:55:24.268Z,5.90
2023-12-28T07:57:51.203Z,6.00
2023-12-28T08:00:18.368Z,6.20
2023-12-28T08:02:45.427Z,6.20
2023-12-28T08:05:12.937Z,5.70
2023-12-28T08:07:51.779Z,5.50
2023-12-28T08:10:18.649Z,5.30
2023-12-28T08:12:51.214Z,5.10
2023-12-28T08:15:29.636Z,5.00
2023-12-28T08:18:09.185Z,4.70
2023-12-28T08:20:45.136Z,4.70
2023-12-28T08:23:18.184Z,4.50
2023-12-28T08:25:48.769Z,4.20
2023-12-28T08:28:19.395Z,4.20
2023-12-28T08:30:46.309Z,4.10
2023-12-28T08:33:16.701Z,4.10
2023-12-28T08:35:49.838Z,4.00
2023-12-28T08:38:40.642Z,3.90
2023-12-28T08:41:10.285Z,3.70
2023-12-28T08:43:43.066Z,3.60
2023-12-28T08:46:10.110Z,3.60
2023-12-28T08:48:49.038Z,3.50
2023-12-28T08:51:21.641Z,3.50
2023-12-28T08:54:19.024Z,3.40
2023-12-28T08:57:04.071Z,3.40
2023-12-28T08:59:40.426Z,3.50
2023-12-28T09:02:10.447Z,3.40
2023-12-28T09:04:40.380Z,3.50
2023-12-28T09:07:14.289Z,3.40
2023-12-28T09:09:52.135Z,3.60
2023-12-28T09:12:22.039Z,3.60
2023-12-28T09:14:53.931Z,3.50
2023-12-28T09:17:29.467Z,3.80
2023-12-28T09:20:05.305Z,4.00
2023-12-28T09:22:43.924Z,3.90
2023-12-28T09:25:13.613Z,3.80
2023-12-28T09:27:49.345Z,3.90
2023-12-28T09:30:25.618Z,4.00
2023-12-28T09:32:58.694Z,4.00
2023-12-28T09:35:31.384Z,4.00
2023-12-28T09:38:01.244Z,4.00
2023-12-28T09:40:30.772Z,4.00
2023-12-28T09:42:58.146Z,4.10
2023-12-28T09:45:25.362Z,4.10
2023-12-28T09:47:53.483Z,3.90
2023-12-28T09:50:27.840Z,4.00
2023-12-28T09:52:58.074Z,3.80
2023-12-28T09:55:26.484Z,3.90
2023-12-28T09:57:53.583Z,3.90
2023-12-28T10:00:23.273Z,3.80
2023-12-28T10:02:56.247Z,3.80
2023-12-28T10:05:25.986Z,3.90
2023-12-28T10:07:59.144Z,3.90
2023-12-28T10:10:36.595Z,4.10
2023-12-28T10:13:11.967Z,4.10
2023-12-28T10:15:42.138Z,4.10
2023-12-28T10:18:09.112Z,4.20
2023-12-28T10:20:36.159Z,4.10
2023-12-28T10:23:12.585Z,4.20
2023-12-28T10:25:43.013Z,4.30
2023-12-28T10:28:13.728Z,4.30
2023-12-28T10:30:50.046Z,4.40
2023-12-28T10:33:32.668Z,4.30
2023-12-28T10:36:10.194Z,4.30
2023-12-28T10:38:49.712Z,4.40
2023-12-28T10:41:26.802Z,4.50
2023-12-28T10:44:12.749Z,4.60
2023-12-28T10:46:45.081Z,4.60
2023-12-28T10:49:21.519Z,4.80
2023-12-28T10:52:00.053Z,5.00
2023-12-28T10:57:53.283Z,5.50
2023-12-28T11:00:38.604Z,5.60
2023-12-28T11:03:32.035Z,5.70
2023-12-28T11:06:08.158Z,5.90
2023-12-28T11:08:36.858Z,6.10
2023-12-28T11:11:11.508Z,6.30
2023-12-28T11:13:42.686Z,6.20
2023-12-28T11:16:16.571Z,6.20
2023-12-28T11:18:47.578Z,6.40
2023-12-28T11:21:21.534Z,6.60
2023-12-28T11:23:54.523Z,6.80
2023-12-28T11:26:25.678Z,6.90
2023-12-28T11:29:20.902Z,7.10
2023-12-28T11:31:59.632Z,7.30
2023-12-28T11:34:30.978Z,7.40
2023-12-28T11:37:23.361Z,7.40
2023-12-28T11:39:59.053Z,7.40
2023-12-28T11:42:29.587Z,7.70
2023-12-28T11:45:02.648Z,7.60
2023-12-28T11:47:47.813Z,7.80
2023-12-28T11:50:17.907Z,7.70
2023-12-28T11:52:50.181Z,7.50
2023-12-28T11:55:28.478Z,7.40
2023-12-28T11:58:04.397Z,7.10
2023-12-28T12:00:43.322Z,6.80
2023-12-28T12:03:19.922Z,6.80
2023-12-28T12:05:46.863Z,6.90
2023-12-28T12:08:15.380Z,6.80
2023-12-28T12:10:42.548Z,6.90
2023-12-28T12:13:10.515Z,6.80
2023-12-28T12:15:54.310Z,6.60
2023-12-28T12:18:44.200Z,6.60
2023-12-28T12:21:24.317Z,6.50
2023-12-28T12:23:59.036Z,6.30
2023-12-28T12:26:32.712Z,6.40
2023-12-28T12:29:29.241Z,6.40
2023-12-28T12:32:03.186Z,6.20
2023-12-28T12:34:33.099Z,6.00
2023-12-28T12:37:09.532Z,5.90
2023-12-28T12:39:42.706Z,5.90
2023-12-28T12:42:17.760Z,5.80
2023-12-28T12:44:54.850Z,5.90
2023-12-28T12:47:27.713Z,5.90
2023-12-28T12:50:00.051Z,5.80
2023-12-28T12:52:32.844Z,5.60
2023-12-28T12:55:14.827Z,5.50
2023-12-28T12:57:55.179Z,5.40
2023-12-28T13:00:34.149Z,5.30
2023-12-28T13:03:01.554Z,5.20
2023-12-28T13:05:43.285Z,5.00
2023-12-28T13:08:12.822Z,4.80
2023-12-28T13:10:45.620Z,5.00
2023-12-28T13:13:18.752Z,5.00
2023-12-28T13:15:48.310Z,5.00
2023-12-28T13:18:17.993Z,4.90
2023-12-28T13:20:59.878Z,5.00
2023-12-28T13:23:30.125Z,4.80
2023-12-28T13:26:08.442Z,4.60
2023-12-28T13:28:38.038Z,4.70
2023-12-28T13:31:11.048Z,4.70
2023-12-28T13:33:50.492Z,4.60
2023-12-28T13:36:18.549Z,4.60
2023-12-28T13:38:49.128Z,4.60
2023-12-28T13:41:18.012Z,4.50
2023-12-28T13:43:53.314Z,4.50
2023-12-28T13:46:23.805Z,4.40
2023-12-28T13:48:56.800Z,4.50
2023-12-28T13:51:24.198Z,4.50
2023-12-28T13:53:56.746Z,4.40
2023-12-28T13:56:35.495Z,4.40
2023-12-28T13:59:14.162Z,4.40
2023-12-28T14:01:41.903Z,4.30
2023-12-28T14:04:14.952Z,4.20
2023-12-28T14:07:00.547Z,4.30
2023-12-28T14:09:27.431Z,4.30
2023-12-28T14:11:54.461Z,4.40
2023-12-28T14:14:27.060Z,4.40
2023-12-28T14:16:53.960Z,4.40
2023-12-28T14:19:23.208Z,4.40
2023-12-28T14:21:50.567Z,4.30
2023-12-28T14:24:23.199Z,4.20
2023-12-28T14:26:53.399Z,4.10
2023-12-28T14:29:20.811Z,4.20
2023-12-28T14:31:54.890Z,4.20
2023-12-28T14:34:27.826Z,4.10
2023-12-28T14:36:55.452Z,4.20
2023-12-28T14:39:28.111Z,4.30
2023-12-28T14:42:13.369Z,4.20
2023-12-28T14:44:46.083Z,4.20
2023-12-28T14:47:15.736Z,4.10
2023-12-28T14:49:46.246Z,4.10
2023-12-28T14:52:16.370Z,4.00
2023-12-28T14:54:47.093Z,3.90
2023-12-28T14:57:14.033Z,4.00
2023-12-28T14:59:52.426Z,3.90
2023-12-28T15:02:25.146Z,3.80
2023-12-28T15:04:55.214Z,3.90
2023-12-28T15:07:25.239Z,3.90
2023-12-28T15:09:57.146Z,3.80
2023-12-28T15:12:36.386Z,3.70
2023-12-28T15:15:11.138Z,3.70
2023-12-28T15:17:48.060Z,3.70
2023-12-28T15:20:30.753Z,3.60
2023-12-28T15:23:06.153Z,3.70
2023-12-28T15:25:33.057Z,3.70
2023-12-28T15:28:05.706Z,3.60
2023-12-28T15:30:35.266Z,3.60
2023-12-28T15:33:05.390Z,3.60
2023-12-28T15:35:41.712Z,3.60
2023-12-28T15:38:17.429Z,3.70
2023-12-28T15:40:51.240Z,3.70
2023-12-28T15:43:29.982Z,3.70
2023-12-28T15:46:02.963Z,3.70
2023-12-28T15:48:33.796Z,3.70
2023-12-28T15:51:02.541Z,3.80
2023-12-28T15:53:29.414Z,3.80
2023-12-28T15:56:04.904Z,3.80
2023-12-28T15:58:41.662Z,3.80
2023-12-28T16:01:08.766Z,3.80
2023-12-28T16:03:35.653Z,3.80
2023-12-28T16:06:02.656Z,3.80
2023-12-28T16:08:29.467Z,3.80
2023-12-28T16:10:58.891Z,3.80
2023-12-28T16:13:26.555Z,3.80
2023-12-28T16:15:53.930Z,3.80
2023-12-28T16:18:23.502Z,3.80
2023-12-28T16:20:50.747Z,3.80
2023-12-28T16:23:17.905Z,3.80
2023-12-28T16:25:44.791Z,3.80
2023-12-28T16:28:12.085Z,3.70
2023-12-28T16:30:40.531Z,3.70
2023-12-28T16:33:07.674Z,3.70
2023-12-28T16:35:34.571Z,3.70
2023-12-28T16:38:01.749Z,3.70
2023-12-28T16:40:28.714Z,3.70
2023-12-28T16:42:55.745Z,3.70
2023-12-28T16:45:24.081Z,3.70
2023-12-28T16:47:51.768Z,3.80
2023-12-28T16:50:20.349Z,3.80
2023-12-28T16:52:47.358Z,3.70
2023-12-28T16:55:14.391Z,3.60
2023-12-28T16:57:41.294Z,3.70
2023-12-28T17:00:12.007Z,3.70
2023-12-28T17:02:40.057Z,3.70
2023-12-28T17:05:08.124Z,3.80
2023-12-28T17:07:35.261Z,3.80
2023-12-28T17:10:04.777Z,3.80
2023-12-28T17:12:35.539Z,3.80
2023-12-28T17:15:02.602Z,3.70
2023-12-28T17:17:29.681Z,3.70
2023-12-28T17:19:56.951Z,3.80
2023-12-28T17:22:28.441Z,3.80
2023-12-28T17:25:22.387Z,3.80
2023-12-28T17:27:55.809Z,3.80
2023-12-28T17:30:27.937Z,3.80
2023-12-28T17:32:59.435Z,3.90
2023-12-28T17:35:28.016Z,3.90
2023-12-28T17:37:55.473Z,3.90
2023-12-28T17:40:23.233Z,4.00
2023-12-28T17:42:55.510Z,4.00
2023-12-28T17:46:13.114Z,4.10
2023-12-28T17:48:42.456Z,4.10
2023-12-28T17:51:11.885Z,4.20
2023-12-28T17:53:39.049Z,4.20
2023-12-28T17:56:06.119Z,4.20
2023-12-28T17:58:32.922Z,4.20
2023-12-28T18:00:59.940Z,4.20
2023-12-28T18:03:27.229Z,4.20
2023-12-28T18:05:54.173Z,4.10
2023-12-28T18:08:22.739Z,4.10
2023-12-28T18:10:49.608Z,4.10
2023-12-28T18:13:16.583Z,4.10
2023-12-28T18:15:43.815Z,4.00
2023-12-28T18:18:10.789Z,4.00
2023-12-28T18:20:39.322Z,3.90
2023-12-28T18:23:06.179Z,3.90
2023-12-28T18:25:33.174Z,4.00
2023-12-28T18:28:01.413Z,3.90
2023-12-28T18:30:28.892Z,3.90
2023-12-28T18:32:56.700Z,3.90
2023-12-28T18:35:26.482Z,4.00
2023-12-28T18:37:53.340Z,4.00
2023-12-28T18:40:21.693Z,3.90
2023-12-28T18:42:49.428Z,3.80
2023-12-28T18:45:16.495Z,3.90
2023-12-28T18:47:43.669Z,3.90
2023-12-28T18:50:10.703Z,3.90
2023-12-28T18:52:37.595Z,3.90
2023-12-28T18:55:05.659Z,3.90
2023-12-28T18:57:32.551Z,3.90
2023-12-28T18:59:59.883Z,4.00
2023-12-28T19:02:28.810Z,3.90
2023-12-28T19:04:56.430Z,3.90
2023-12-28T19:07:25.055Z,4.00
2023-12-28T19:09:51.995Z,4.00
2023-12-28T19:12:18.914Z,4.00
2023-12-28T19:14:46.416Z,4.10
2023-12-28T19:17:13.773Z,4.10
2023-12-28T19:19:40.993Z,4.20
2023-12-28T19:22:08.015Z,4.20
2023-12-28T19:24:34.870Z,4.10
2023-12-28T19:27:01.768Z,4.00
2023-12-28T19:29:28.781Z,4.10
2023-12-28T19:31:56.551Z,4.10
2023-12-28T19:34:23.615Z,4.20
2023-12-28T19:36:50.521Z,4.20
2023-12-28T19:39:17.475Z,4.20
2023-12-28T19:41:44.535Z,4.20
2023-12-28T19:44:13.366Z,4.20
2023-12-28T19:46:40.334Z,4.30
2023-12-28T19:49:07.315Z,4.30
2023-12-28T19:51:34.866Z,4.30
2023-12-28T19:54:01.918Z,4.30
2023-12-28T19:56:29.752Z,4.30
2023-12-28T19:58:56.604Z,4.40
2023-12-28T20:01:23.777Z,4.40
2023-12-28T20:03:50.699Z,4.50
2023-12-28T20:06:17.637Z,4.50
2023-12-28T20:08:44.771Z,4.60
2023-12-28T20:11:11.639Z,4.50
2023-12-28T20:13:38.624Z,4.60
2023-12-28T20:16:07.227Z,4.60
2023-12-28T20:18:34.539Z,4.70
2023-12-28T20:21:02.274Z,4.70
2023-12-28T20:23:29.150Z,4.80
2023-12-28T20:25:56.009Z,4.80
2023-12-28T20:28:22.965Z,4.80
2023-12-28T20:30:49.905Z,4.80
2023-12-28T20:33:17.640Z,4.90
2023-12-28T20:35:46.490Z,4.90
2023-12-28T20:38:13.472Z,4.90
2023-12-28T20:40:40.372Z,4.80
2023-12-28T20:43:07.374Z,4.80
2023-12-28T20:45:34.446Z,4.90
2023-12-28T20:48:02.711Z,4.90
2023-12-28T20:50:30.056Z,4.90
2023-12-28T20:52:57.316Z,4.90
2023-12-28T20:55:24.476Z,4.90
2023-12-28T20:57:51.497Z,5.00
2023-12-28T21:00:18.545Z,5.00
2023-12-28T21:02:45.612Z,5.00
2023-12-28T21:05:13.388Z,5.00
2023-12-28T21:07:40.514Z,4.90
2023-12-28T21:10:07.863Z,4.90
2023-12-28T21:12:38.656Z,5.00
2023-12-28T21:15:09.331Z,5.00
2023-12-28T21:17:36.299Z,5.00
2023-12-28T21:20:03.921Z,5.00
2023-12-28T21:22:30.982Z,4.90
2023-12-28T21:24:57.838Z,5.00
2023-12-28T21:27:24.759Z,4.90
2023-12-28T21:29:51.651Z,4.90
2023-12-28T21:32:20.565Z,5.00
2023-12-28T21:34:47.644Z,5.00
2023-12-28T21:37:14.711Z,5.00
2023-12-28T21:39:42.333Z,5.00
2023-12-28T21:42:09.283Z,5.00
2023-12-28T21:44:36.161Z,5.00
2023-12-28T21:47:03.078Z,5.10
2023-12-28T21:49:29.985Z,5.00
2023-12-28T21:51:58.905Z,5.10
2023-12-28T21:54:26.117Z,5.00
2023-12-28T21:56:53.073Z,5.00
2023-12-28T21:59:23.413Z,5.00
2023-12-28T22:01:52.966Z,5.10
2023-12-28T22:04:23.472Z,5.10
2023-12-28T22:06:51.654Z,5.10
2023-12-28T22:09:19.720Z,5.10
2023-12-28T22:11:47.081Z,5.00
2023-12-28T22:14:14.032Z,5.00
2023-12-28T22:16:40.911Z,5.00
2023-12-28T22:19:07.942Z,5.00
2023-12-28T22:21:34.924Z,5.00
2023-12-28T22:24:02.816Z,5.00
2023-12-28T22:26:29.642Z,5.00
2023-12-28T22:28:56.620Z,4.90
2023-12-28T22:31:23.941Z,4.90
2023-12-28T22:33:51.216Z,4.90
2023-12-28T22:36:18.690Z,4.90
2023-12-28T22:38:45.482Z,4.90
2023-12-28T22:41:12.319Z,4.80
2023-12-28T22:43:39.173Z,4.80
2023-12-28T22:46:06.000Z,4.70
2023-12-28T22:48:33.037Z,4.60
2023-12-28T22:51:00.023Z,4.60
2023-12-28T22:53:26.893Z,4.60
2023-12-28T22:55:53.701Z,4.60
2023-12-28T22:58:20.578Z,4.60
2023-12-28T23:00:47.815Z,4.70
2023-12-28T23:03:14.906Z,4.50
2023-12-28T23:05:41.944Z,4.60
2023-12-28T23:08:08.939Z,4.60
2023-12-28T23:10:35.818Z,4.70
2023-12-28T23:13:02.784Z,4.60
2023-12-28T23:15:31.032Z,4.70
2023-12-28T23:18:00.056Z,4.80
2023-12-28T23:20:27.463Z,4.80
2023-12-28T23:22:54.282Z,4.80
2023-12-28T23:25:22.047Z,4.90
2023-12-28T23:27:49.794Z,4.90
2023-12-28T23:30:18.274Z,5.00
2023-12-28T23:32:45.774Z,5.00
2023-12-28T23:35:12.994Z,5.00
2023-12-28T23:37:40.171Z,5.10
2023-12-28T23:40:07.842Z,5.10
2023-12-28T23:42:36.714Z,5.00
2023-12-28T23:45:04.068Z,5.10
2023-12-28T23:47:30.956Z,5.10
2023-12-28T23:49:57.925Z,5.10
2023-12-28T23:52:24.825Z,5.20
2023-12-28T23:54:51.707Z,5.20
2023-12-28T23:57:18.628Z,5.10
2023-12-28T23:59:45.481Z,5.20
